createdAt,value
2022-09-07T00:01:53.412Z,23.46
2022-09-07T00:04:20.106Z,23.52
2022-09-07T00:06:46.746Z,23.57
2022-09-07T00:09:13.506Z,23.59
2022-09-07T00:11:40.173Z,23.64
2022-09-07T00:14:07.727Z,23.60
2022-09-07T00:16:34.448Z,23.57
2022-09-07T00:19:03.708Z,23.48
2022-09-07T00:21:30.441Z,23.54
2022-09-07T00:23:58.031Z,23.55
2022-09-07T00:26:30.098Z,23.57
2022-09-07T00:28:58.927Z,23.61
2022-09-07T00:31:26.218Z,23.58
2022-09-07T00:33:54.051Z,23.61
2022-09-07T00:36:22.572Z,23.64
2022-09-07T00:38:49.593Z,23.74
2022-09-07T00:41:17.998Z,23.76
2022-09-07T00:43:53.866Z,23.71
2022-09-07T00:46:29.301Z,23.75
2022-09-07T00:49:10.254Z,23.67
2022-09-07T00:51:42.423Z,23.55
2022-09-07T00:54:15.080Z,23.58
2022-09-07T00:56:44.084Z,23.60
2022-09-07T00:59:14.078Z,23.50
2022-09-07T01:01:41.168Z,23.44
2022-09-07T01:04:09.124Z,23.29
2022-09-07T01:06:38.210Z,23.21
2022-09-07T01:09:17.201Z,23.10
2022-09-07T01:11:50.763Z,23.13
2022-09-07T01:14:23.132Z,23.18
2022-09-07T01:17:26.945Z,23.36
2022-09-07T01:20:28.755Z,23.47
2022-09-07T01:23:01.211Z,23.38
2022-09-07T01:25:57.480Z,23.29
2022-09-07T01:28:29.178Z,23.24
2022-09-07T01:31:05.691Z,23.16
2022-09-07T01:33:52.582Z,23.13
2022-09-07T01:36:30.128Z,23.08
2022-09-07T01:39:01.747Z,23.12
2022-09-07T01:41:35.917Z,23.04
2022-09-07T01:44:07.659Z,23.07
2022-09-07T01:47:13.017Z,23.06
2022-09-07T01:49:50.251Z,23.01
2022-09-07T01:52:38.206Z,23.00
2022-09-07T01:55:32.845Z,22.99
2022-09-07T01:58:11.564Z,23.04
2022-09-07T02:00:42.040Z,22.99
2022-09-07T02:03:21.602Z,22.97
2022-09-07T02:06:09.582Z,22.89
2022-09-07T02:09:04.946Z,22.88
2022-09-07T02:11:42.253Z,22.99
2022-09-07T02:14:14.661Z,22.99
2022-09-07T02:16:54.770Z,23.03
2022-09-07T02:19:23.188Z,22.97
2022-09-07T02:21:57.192Z,22.92
2022-09-07T02:24:31.952Z,22.88
2022-09-07T02:27:01.472Z,22.86
2022-09-07T02:29:30.970Z,22.89
2022-09-07T02:31:57.964Z,22.92
2022-09-07T02:34:24.802Z,22.93
2022-09-07T02:36:53.102Z,22.93
2022-09-07T02:39:19.849Z,22.95
2022-09-07T02:41:46.667Z,22.86
2022-09-07T02:44:19.031Z,22.80
2022-09-07T02:47:07.242Z,22.81
2022-09-07T02:49:46.292Z,22.81
2022-09-07T02:52:50.555Z,22.81
2022-09-07T02:55:20.210Z,22.79
2022-09-07T02:58:14.617Z,22.75
2022-09-07T03:00:51.915Z,22.65
2022-09-07T03:04:07.360Z,22.60
2022-09-07T03:06:46.784Z,22.56
2022-09-07T03:09:19.615Z,22.60
2022-09-07T03:11:46.829Z,22.70
2022-09-07T03:14:19.816Z,22.69
2022-09-07T03:16:51.642Z,22.64
2022-09-07T03:19:18.723Z,22.61
2022-09-07T03:21:45.756Z,22.61
2022-09-07T03:24:12.398Z,22.73
2022-09-07T03:26:46.195Z,22.74
2022-09-07T03:29:13.378Z,22.81
2022-09-07T03:31:40.400Z,22.70
2022-09-07T03:34:07.362Z,22.61
2022-09-07T03:36:34.981Z,22.61
2022-09-07T03:39:02.429Z,22.62
2022-09-07T03:41:29.246Z,22.58
2022-09-07T03:43:55.965Z,22.59
2022-09-07T03:46:23.009Z,22.75
2022-09-07T03:48:50.515Z,22.80
2022-09-07T03:51:18.877Z,22.83
2022-09-07T03:53:46.804Z,22.73
2022-09-07T03:56:18.151Z,22.65
2022-09-07T03:58:46.389Z,22.61
2022-09-07T04:01:16.190Z,22.59
2022-09-07T04:03:43.658Z,22.55
2022-09-07T04:06:10.362Z,22.54
2022-09-07T04:08:38.705Z,22.58
2022-09-07T04:11:07.010Z,22.67
2022-09-07T04:13:35.681Z,22.69
2022-09-07T04:16:13.257Z,22.67
2022-09-07T04:18:40.876Z,22.59
2022-09-07T04:21:08.732Z,22.54
2022-09-07T04:23:38.174Z,22.49
2022-09-07T04:26:04.924Z,22.49
2022-09-07T04:28:32.129Z,22.46
2022-09-07T04:31:02.636Z,22.33
2022-09-07T04:33:31.825Z,22.27
2022-09-07T04:36:02.075Z,22.37
2022-09-07T04:38:29.919Z,22.40
2022-09-07T04:41:26.524Z,22.39
2022-09-07T04:43:58.932Z,22.27
2022-09-07T04:46:28.853Z,22.20
2022-09-07T04:48:57.998Z,22.17
2022-09-07T04:51:28.102Z,22.11
2022-09-07T04:53:56.487Z,22.11
2022-09-07T04:56:24.092Z,22.12
2022-09-07T04:58:51.057Z,22.11
2022-09-07T05:01:21.027Z,22.13
2022-09-07T05:03:48.425Z,22.21
2022-09-07T05:06:16.708Z,22.22
2022-09-07T05:08:45.832Z,22.23
2022-09-07T05:11:14.140Z,22.30
2022-09-07T05:13:41.258Z,22.24
2022-09-07T05:16:10.597Z,22.23
2022-09-07T05:18:37.802Z,22.25
2022-09-07T05:21:13.678Z,22.23
2022-09-07T05:23:40.677Z,22.24
2022-09-07T05:26:07.554Z,22.22
2022-09-07T05:28:35.310Z,22.13
2022-09-07T05:36:41.827Z,22.24
2022-09-07T05:39:09.634Z,22.24
2022-09-07T05:41:36.342Z,22.17
2022-09-07T05:46:52.286Z,22.28
2022-09-07T05:49:18.918Z,22.30
2022-09-07T05:51:45.551Z,22.28
2022-09-07T05:54:12.263Z,22.28
2022-09-07T05:56:39.141Z,22.36
2022-09-07T05:59:05.897Z,22.38
2022-09-07T06:01:32.788Z,22.66
2022-09-07T06:04:00.461Z,22.92
2022-09-07T06:06:27.348Z,23.00
2022-09-07T06:08:54.449Z,23.13
2022-09-07T06:11:23.356Z,23.39
2022-09-07T06:13:50.941Z,23.41
2022-09-07T06:16:19.992Z,23.45
2022-09-07T06:18:48.609Z,23.48
2022-09-07T06:21:16.526Z,23.53
2022-09-07T06:23:44.114Z,23.49
2022-09-07T06:26:12.081Z,23.46
2022-09-07T06:28:43.828Z,23.47
2022-09-07T06:31:13.372Z,23.55
2022-09-07T06:33:41.842Z,23.53
2022-09-07T06:36:14.200Z,23.56
2022-09-07T06:38:40.956Z,23.60
2022-09-07T06:44:00.843Z,23.62
2022-09-07T06:49:14.167Z,23.63
2022-09-07T06:51:40.833Z,23.67
2022-09-07T06:56:54.341Z,23.62
2022-09-07T06:59:21.145Z,23.63
2022-09-07T07:01:47.874Z,23.61
2022-09-07T07:04:14.543Z,23.55
2022-09-07T07:06:41.296Z,23.60
2022-09-07T07:09:11.287Z,23.57
2022-09-07T07:11:38.218Z,23.69
2022-09-07T07:14:05.056Z,23.67
2022-09-07T07:16:31.809Z,23.53
2022-09-07T07:18:58.533Z,23.57
2022-09-07T07:21:25.204Z,23.66
2022-09-07T07:23:53.145Z,23.60
2022-09-07T07:26:26.793Z,23.49
2022-09-07T07:29:03.875Z,23.48
2022-09-07T07:31:33.232Z,23.53
2022-09-07T07:34:00.105Z,23.52
2022-09-07T07:36:28.217Z,23.46
2022-09-07T07:44:20.758Z,23.15
2022-09-07T07:46:51.417Z,23.15
2022-09-07T07:49:18.338Z,23.23
2022-09-07T07:54:36.109Z,23.05
2022-09-07T07:57:03.849Z,23.19
2022-09-07T07:59:30.783Z,23.28
2022-09-07T08:01:57.529Z,23.34
2022-09-07T08:04:24.203Z,23.21
2022-09-07T08:06:50.835Z,23.07
2022-09-07T08:09:17.495Z,22.94
2022-09-07T08:11:44.124Z,22.96
2022-09-07T08:14:10.771Z,22.94
2022-09-07T08:16:37.736Z,22.88
2022-09-07T08:19:05.833Z,22.94
2022-09-07T08:21:32.408Z,23.04
2022-09-07T08:24:00.103Z,23.10
2022-09-07T08:26:27.544Z,23.35
2022-09-07T08:28:55.099Z,23.68
2022-09-07T08:31:22.400Z,24.08
2022-09-07T08:33:48.988Z,24.33
2022-09-07T08:36:20.533Z,24.36
2022-09-07T08:38:47.846Z,24.49
2022-09-07T08:41:46.700Z,24.52
2022-09-07T08:44:18.611Z,24.48
2022-09-07T08:47:11.071Z,24.35
2022-09-07T08:49:37.574Z,24.59
2022-09-07T08:52:13.536Z,24.63
2022-09-07T08:54:45.532Z,24.63
2022-09-07T08:57:21.401Z,24.64
2022-09-07T09:00:00.407Z,24.70
2022-09-07T09:02:30.092Z,24.86
2022-09-07T09:08:06.283Z,24.96
2022-09-07T09:10:47.995Z,25.07
2022-09-07T09:13:19.818Z,25.14
2022-09-07T09:15:52.526Z,25.37
2022-09-07T09:18:22.071Z,25.62
2022-09-07T09:20:51.860Z,25.82
2022-09-07T09:23:21.564Z,25.85
2022-09-07T09:25:57.481Z,26.05
2022-09-07T09:28:26.481Z,26.32
2022-09-07T09:30:55.600Z,26.43
2022-09-07T09:33:27.993Z,26.52
2022-09-07T09:35:57.849Z,26.69
2022-09-07T09:38:34.029Z,26.91
2022-09-07T09:41:13.629Z,27.23
2022-09-07T09:43:57.117Z,27.48
2022-09-07T09:46:28.880Z,27.80
2022-09-07T09:49:01.989Z,28.16
2022-09-07T09:54:33.616Z,28.43
2022-09-07T09:57:00.612Z,29.07
2022-09-07T10:05:34.070Z,29.57
2022-09-07T10:08:01.425Z,29.95
2022-09-07T10:10:29.477Z,29.96
2022-09-07T10:12:56.580Z,28.76
2022-09-07T10:15:40.644Z,28.77
2022-09-07T10:18:27.960Z,28.48
2022-09-07T10:21:12.846Z,28.09
2022-09-07T10:23:40.061Z,28.56
2022-09-07T10:26:28.545Z,29.00
2022-09-07T10:29:31.758Z,28.92
2022-09-07T10:32:10.501Z,29.87
2022-09-07T10:34:47.140Z,30.49
2022-09-07T10:37:31.367Z,30.41
2022-09-07T10:40:12.357Z,29.04
2022-09-07T10:46:10.099Z,28.52
2022-09-07T10:48:48.766Z,27.49
2022-09-07T10:51:31.039Z,26.80
2022-09-07T10:54:31.303Z,26.34
2022-09-07T10:57:16.516Z,26.18
2022-09-07T11:06:00.937Z,25.68
2022-09-07T11:12:03.595Z,25.64
2022-09-07T11:14:37.257Z,25.63
2022-09-07T11:17:12.613Z,25.58
2022-09-07T11:20:14.598Z,25.56
2022-09-07T11:22:52.406Z,25.57
2022-09-07T11:25:29.901Z,25.61
2022-09-07T11:28:02.420Z,25.62
2022-09-07T11:30:37.517Z,25.68
2022-09-07T11:33:24.337Z,25.60
2022-09-07T11:35:50.849Z,25.87
2022-09-07T11:38:27.657Z,25.87
2022-09-07T11:41:22.522Z,25.81
2022-09-07T11:44:06.951Z,25.74
2022-09-07T11:46:53.555Z,25.92
2022-09-07T11:49:26.607Z,26.66
2022-09-07T11:52:16.507Z,26.64
2022-09-07T11:54:52.375Z,26.69
2022-09-07T11:57:37.044Z,26.74
2022-09-07T12:00:19.385Z,26.55
2022-09-07T12:03:23.989Z,26.44
2022-09-07T12:06:21.164Z,26.62
2022-09-07T12:09:11.005Z,26.33
2022-09-07T12:12:04.697Z,26.31
2022-09-07T12:14:55.800Z,27.26
2022-09-07T12:17:39.824Z,28.23
2022-09-07T12:20:10.644Z,26.83
2022-09-07T12:22:38.073Z,26.54
2022-09-07T12:25:09.610Z,26.34
2022-09-07T12:27:38.658Z,26.31
2022-09-07T12:30:05.159Z,26.34
2022-09-07T12:32:57.140Z,26.78
2022-09-07T12:35:30.053Z,26.96
2022-09-07T12:38:01.021Z,27.15
2022-09-07T12:40:30.197Z,27.04
2022-09-07T12:43:15.080Z,26.94
2022-09-07T12:45:44.533Z,26.84
2022-09-07T12:48:17.071Z,26.82
2022-09-07T12:50:52.395Z,26.73
2022-09-07T12:53:36.430Z,26.73
2022-09-07T12:56:22.449Z,26.92
2022-09-07T12:59:34.077Z,27.07
2022-09-07T13:02:12.685Z,27.12
2022-09-07T13:05:20.673Z,27.05
2022-09-07T13:08:09.126Z,26.82
2022-09-07T13:10:39.642Z,26.71
2022-09-07T13:13:16.872Z,26.72
2022-09-07T13:15:48.864Z,26.60
2022-09-07T13:18:27.607Z,26.65
2022-09-07T13:21:09.170Z,26.53
2022-09-07T13:23:38.144Z,26.47
2022-09-07T13:26:08.681Z,26.69
2022-09-07T13:28:58.118Z,27.12
2022-09-07T13:32:02.666Z,27.25
2022-09-07T13:34:33.694Z,27.06
2022-09-07T13:37:01.960Z,26.90
2022-09-07T13:39:40.876Z,26.89
2022-09-07T13:42:13.048Z,26.80
2022-09-07T13:44:40.629Z,26.89
2022-09-07T13:47:33.368Z,26.74
2022-09-07T13:50:15.033Z,26.90
2022-09-07T13:52:54.738Z,27.14
2022-09-07T13:55:38.814Z,27.13
2022-09-07T13:58:28.585Z,27.51
2022-09-07T14:01:01.286Z,27.55
2022-09-07T14:03:36.678Z,27.60
2022-09-07T14:06:21.471Z,27.58
2022-09-07T14:08:53.790Z,27.68
2022-09-07T14:11:28.253Z,27.89
2022-09-07T14:14:46.034Z,27.77
2022-09-07T14:17:15.291Z,27.70
2022-09-07T14:19:41.805Z,27.82
2022-09-07T14:22:23.276Z,27.69
2022-09-07T14:24:55.638Z,27.67
2022-09-07T14:27:38.910Z,27.90
2022-09-07T14:30:33.212Z,27.96
2022-09-07T14:33:04.705Z,27.78
2022-09-07T14:35:38.268Z,27.79
2022-09-07T14:41:15.314Z,27.37
2022-09-07T14:43:56.165Z,27.17
2022-09-07T14:46:26.774Z,27.09
2022-09-07T14:48:56.147Z,26.95
2022-09-07T14:51:35.278Z,26.88
2022-09-07T14:54:05.908Z,26.89
2022-09-07T14:56:37.952Z,26.92
2022-09-07T15:04:22.084Z,26.91
2022-09-07T15:07:04.037Z,26.84
2022-09-07T15:09:39.614Z,26.69
2022-09-07T15:12:19.030Z,26.72
2022-09-07T15:14:47.610Z,26.79
2022-09-07T15:17:47.136Z,26.74
2022-09-07T15:20:43.251Z,26.78
2022-09-07T15:23:18.189Z,26.73
2022-09-07T15:25:51.164Z,26.49
2022-09-07T15:34:17.320Z,26.74
2022-09-07T15:36:49.778Z,26.79
2022-09-07T15:39:21.061Z,26.82
2022-09-07T15:41:48.389Z,26.75
2022-09-07T15:44:15.733Z,26.25
2022-09-07T15:47:42.295Z,26.43
2022-09-07T15:49:30.183Z,26.53
2022-09-07T15:52:05.026Z,26.52
2022-09-07T15:54:35.306Z,26.51
2022-09-07T15:59:50.380Z,26.25
2022-09-07T16:05:04.688Z,26.32
2022-09-07T16:10:19.108Z,26.19
2022-09-07T16:15:27.077Z,25.95
2022-09-07T16:17:54.078Z,25.95
2022-09-07T16:20:20.798Z,25.91
2022-09-07T16:25:35.333Z,25.85
2022-09-07T16:28:03.265Z,25.70
2022-09-07T16:30:31.152Z,25.62
2022-09-07T16:32:58.611Z,25.61
2022-09-07T16:35:26.257Z,25.63
2022-09-07T16:40:42.518Z,25.59
2022-09-07T16:43:10.018Z,25.51
2022-09-07T16:48:23.678Z,25.49
2022-09-07T16:51:00.292Z,25.48
2022-09-07T16:53:28.909Z,25.54
2022-09-07T16:56:09.625Z,25.45
2022-09-07T16:58:44.697Z,25.48
2022-09-07T17:01:14.547Z,25.44
2022-09-07T17:03:42.566Z,25.41
2022-09-07T17:06:11.469Z,25.42
2022-09-07T17:08:38.975Z,25.40
2022-09-07T17:11:11.015Z,25.31
2022-09-07T17:13:39.092Z,25.34
2022-09-07T17:16:07.754Z,25.33
2022-09-07T17:21:22.016Z,25.30
2022-09-07T17:23:54.766Z,25.35
2022-09-07T17:26:23.273Z,25.33
2022-09-07T17:28:52.039Z,25.32
2022-09-07T17:34:13.161Z,25.21
2022-09-07T17:36:40.380Z,25.17
2022-09-07T17:39:22.726Z,25.16
2022-09-07T17:41:52.577Z,25.19
2022-09-07T17:44:20.108Z,25.18
2022-09-07T17:46:46.756Z,25.20
2022-09-07T17:49:16.390Z,25.16
2022-09-07T17:51:43.901Z,25.18
2022-09-07T17:54:14.209Z,25.19
2022-09-07T17:56:41.819Z,25.17
2022-09-07T18:01:56.113Z,25.13
2022-09-07T18:04:22.987Z,25.19
2022-09-07T18:06:49.863Z,25.18
2022-09-07T18:09:16.896Z,25.09
2022-09-07T18:11:48.072Z,25.18
2022-09-07T18:14:15.622Z,25.24
2022-09-07T18:16:44.203Z,25.26
2022-09-07T18:19:11.757Z,25.31
2022-09-07T18:21:41.129Z,25.30
2022-09-07T18:24:13.513Z,25.37
2022-09-07T18:26:40.904Z,25.33
2022-09-07T18:29:26.024Z,25.31
2022-09-07T18:31:55.268Z,25.31
2022-09-07T18:34:22.030Z,25.30
2022-09-07T18:36:48.998Z,25.26
2022-09-07T18:39:15.606Z,25.24
2022-09-07T18:41:42.316Z,25.18
2022-09-07T18:46:55.597Z,25.10
2022-09-07T18:49:22.221Z,25.06
2022-09-07T18:54:35.703Z,25.04
2022-09-07T18:57:02.266Z,25.01
2022-09-07T18:59:29.863Z,24.97
2022-09-07T19:02:00.082Z,24.98
2022-09-07T19:07:17.622Z,24.97
2022-09-07T19:09:44.246Z,24.97
2022-09-07T19:12:10.801Z,24.94
2022-09-07T19:14:37.433Z,24.95
2022-09-07T19:17:04.101Z,24.96
2022-09-07T19:19:30.928Z,24.94
2022-09-07T19:21:58.290Z,24.96
2022-09-07T19:24:25.776Z,24.97
2022-09-07T19:26:55.735Z,24.98
2022-09-07T19:29:25.202Z,24.92
2022-09-07T19:32:06.695Z,24.92
2022-09-07T19:34:35.132Z,24.88
2022-09-07T19:37:02.856Z,24.91
2022-09-07T19:39:29.531Z,24.91
2022-09-07T19:41:56.389Z,24.91
2022-09-07T19:44:23.084Z,24.92
2022-09-07T19:46:49.970Z,24.92
2022-09-07T19:49:17.071Z,24.91
2022-09-07T19:51:44.067Z,24.93
2022-09-07T19:54:11.924Z,24.92
2022-09-07T19:56:40.662Z,24.92
2022-09-07T19:59:07.574Z,24.89
2022-09-07T20:01:35.147Z,24.89
2022-09-07T20:04:05.852Z,24.87
2022-09-07T20:06:34.365Z,24.89
2022-09-07T20:09:03.695Z,24.87
2022-09-07T20:11:32.083Z,24.86
2022-09-07T20:13:58.918Z,24.85
2022-09-07T20:16:26.224Z,24.88
2022-09-07T20:18:52.991Z,24.88
2022-09-07T20:21:24.496Z,24.87
2022-09-07T20:23:51.218Z,24.90
2022-09-07T20:26:20.321Z,24.89
2022-09-07T20:28:47.055Z,24.86
2022-09-07T20:31:16.026Z,24.79
2022-09-07T20:33:44.853Z,24.82
2022-09-07T20:36:14.511Z,24.82
2022-09-07T20:38:55.363Z,24.81
2022-09-07T20:41:24.221Z,24.81
2022-09-07T20:43:51.658Z,24.83
2022-09-07T20:46:18.816Z,24.81
2022-09-07T20:48:45.631Z,24.81
2022-09-07T20:51:19.016Z,24.78
2022-09-07T20:53:48.624Z,24.80
2022-09-07T20:56:25.935Z,24.78
2022-09-07T20:58:57.684Z,24.77
2022-09-07T21:01:24.723Z,24.77
2022-09-07T21:03:53.872Z,24.78
2022-09-07T21:06:22.345Z,24.78
2022-09-07T21:08:49.954Z,24.79
2022-09-07T21:11:22.235Z,24.75
2022-09-07T21:13:55.911Z,24.75
2022-09-07T21:16:22.864Z,24.74
2022-09-07T21:18:53.806Z,24.77
2022-09-07T21:21:20.920Z,24.76
2022-09-07T21:23:47.853Z,24.76
2022-09-07T21:26:14.830Z,24.79
2022-09-07T21:28:41.435Z,24.77
2022-09-07T21:31:09.316Z,24.74
2022-09-07T21:33:37.733Z,24.73
2022-09-07T21:36:13.055Z,24.71
2022-09-07T21:38:41.331Z,24.74
2022-09-07T21:41:15.712Z,24.38
2022-09-07T21:43:42.962Z,24.17
2022-09-07T21:46:13.892Z,24.41
2022-09-07T21:48:40.681Z,24.59
2022-09-07T21:51:07.297Z,24.68
2022-09-07T21:53:34.306Z,24.71
2022-09-07T21:56:04.646Z,24.70
2022-09-07T21:58:31.990Z,24.72
2022-09-07T22:01:00.752Z,24.73
2022-09-07T22:03:27.635Z,24.74
2022-09-07T22:05:54.366Z,24.76
2022-09-07T22:08:20.928Z,24.74
2022-09-07T22:10:47.490Z,24.76
2022-09-07T22:13:14.088Z,24.71
2022-09-07T22:15:41.513Z,24.71
2022-09-07T22:18:12.611Z,24.75
2022-09-07T22:20:39.381Z,24.77
2022-09-07T22:23:06.466Z,24.77
2022-09-07T22:25:33.646Z,24.75
2022-09-07T22:28:00.653Z,24.78
2022-09-07T22:30:27.323Z,24.71
2022-09-07T22:32:54.071Z,24.73
2022-09-07T22:35:21.155Z,24.70
2022-09-07T22:37:47.722Z,24.66
2022-09-07T22:40:14.854Z,24.66
2022-09-07T22:42:41.990Z,24.67
2022-09-07T22:45:09.344Z,24.71
2022-09-07T22:47:35.900Z,24.68
2022-09-07T22:50:02.479Z,24.74
2022-09-07T22:52:29.074Z,24.71
2022-09-07T22:54:55.642Z,24.73
2022-09-07T22:57:22.260Z,24.73
2022-09-07T22:59:48.903Z,24.71
2022-09-07T23:02:15.462Z,24.69
2022-09-07T23:04:42.143Z,24.65
2022-09-07T23:07:08.767Z,24.65
2022-09-07T23:09:35.588Z,24.68
2022-09-07T23:12:02.436Z,24.51
2022-09-07T23:14:29.185Z,24.43
2022-09-07T23:16:55.762Z,24.54
2022-09-07T23:19:22.505Z,24.64
2022-09-07T23:21:49.340Z,24.63
2022-09-07T23:24:18.131Z,24.66
2022-09-07T23:26:45.089Z,24.68
2022-09-07T23:29:13.185Z,24.65
2022-09-07T23:31:40.985Z,24.64
2022-09-07T23:34:07.875Z,24.60
2022-09-07T23:36:34.744Z,24.49
2022-09-07T23:39:01.704Z,24.52
2022-09-07T23:41:28.900Z,24.55
2022-09-07T23:43:56.817Z,24.44
2022-09-07T23:46:24.014Z,24.52
2022-09-07T23:48:51.085Z,24.54
2022-09-07T23:51:22.866Z,24.55
2022-09-07T23:53:50.677Z,24.46
2022-09-07T23:56:17.281Z,24.46
2022-09-07T23:58:44.009Z,24.53
